sensor_id;sensor_type;location;lat;lon;timestamp;pressure;altitude;pressure_sealevel;temperature;humidity
61554;BME280;47425;51.976;5.326;2023-04-02T00:01:49;101032.44;;;8.64;67.45
61554;BME280;47425;51.976;5.326;2023-04-02T00:04:18;101034.09;;;8.72;67.54
61554;BME280;47425;51.976;5.326;2023-04-02T00:06:51;101031.34;;;8.85;67.81
61554;BME280;47425;51.976;5.326;2023-04-02T00:09:22;101044.53;;;8.76;67.20
61554;BME280;47425;51.976;5.326;2023-04-02T00:11:50;101040.31;;;8.57;66.11
61554;BME280;47425;51.976;5.326;2023-04-02T00:14:21;101051.78;;;8.38;66.72
61554;BME280;47425;51.976;5.326;2023-04-02T00:16:48;101051.72;;;8.44;67.12
61554;BME280;47425;51.976;5.326;2023-04-02T00:19:16;101049.09;;;8.47;67.35
61554;BME280;47425;51.976;5.326;2023-04-02T00:21:44;101056.94;;;8.47;67.61
61554;BME280;47425;51.976;5.326;2023-04-02T00:24:13;101049.09;;;8.47;66.33
61554;BME280;47425;51.976;5.326;2023-04-02T00:26:43;101060.44;;;8.45;67.56
61554;BME280;47425;51.976;5.326;2023-04-02T00:29:12;101072.56;;;8.52;66.95
61554;BME280;47425;51.976;5.326;2023-04-02T00:31:40;101071.75;;;8.45;66.89
61554;BME280;47425;51.976;5.326;2023-04-02T00:34:08;101081.28;;;8.49;67.88
61554;BME280;47425;51.976;5.326;2023-04-02T00:36:38;101075.88;;;8.72;68.29
61554;BME280;47425;51.976;5.326;2023-04-02T00:39:16;101088.09;;;8.70;67.52
61554;BME280;47425;51.976;5.326;2023-04-02T00:41:45;101085.66;;;8.49;67.02
61554;BME280;47425;51.976;5.326;2023-04-02T00:44:15;101085.75;;;8.32;68.19
61554;BME280;47425;51.976;5.326;2023-04-02T00:46:46;101098.75;;;8.35;68.87
61554;BME280;47425;51.976;5.326;2023-04-02T00:49:22;101099.56;;;8.48;68.29
61554;BME280;47425;51.976;5.326;2023-04-02T00:51:52;101108.28;;;8.47;68.10
61554;BME280;47425;51.976;5.326;2023-04-02T00:54:20;101118.69;;;8.53;67.80
61554;BME280;47425;51.976;5.326;2023-04-02T00:56:51;101111.69;;;8.58;67.83
61554;BME280;47425;51.976;5.326;2023-04-02T00:59:19;101118.72;;;8.45;66.72
61554;BME280;47425;51.976;5.326;2023-04-02T01:01:50;101129.19;;;8.36;67.85
61554;BME280;47425;51.976;5.326;2023-04-02T01:04:26;101143.19;;;8.24;68.27
61554;BME280;47425;51.976;5.326;2023-04-02T01:06:54;101139.72;;;8.19;67.97
61554;BME280;47425;51.976;5.326;2023-04-02T01:09:25;101141.44;;;8.26;68.19
61554;BME280;47425;51.976;5.326;2023-04-02T01:11:58;101148.50;;;8.10;67.62
61554;BME280;47425;51.976;5.326;2023-04-02T01:14:35;101149.44;;;7.89;67.82
61554;BME280;47425;51.976;5.326;2023-04-02T01:17:05;101146.81;;;7.97;68.25
61554;BME280;47425;51.976;5.326;2023-04-02T01:22:26;101163.25;;;8.14;68.33
61554;BME280;47425;51.976;5.326;2023-04-02T01:24:55;101162.34;;;8.18;67.13
61554;BME280;47425;51.976;5.326;2023-04-02T01:27:23;101174.59;;;8.09;68.03
61554;BME280;47425;51.976;5.326;2023-04-02T01:29:55;101172.72;;;8.31;67.28
61554;BME280;47425;51.976;5.326;2023-04-02T01:32:24;101170.09;;;8.31;67.67
61554;BME280;47425;51.976;5.326;2023-04-02T01:34:52;101167.50;;;8.29;66.59
61554;BME280;47425;51.976;5.326;2023-04-02T01:37:23;101178.78;;;8.34;66.92
61554;BME280;47425;51.976;5.326;2023-04-02T01:39:59;101180.59;;;8.21;66.16
61554;BME280;47425;51.976;5.326;2023-04-02T01:42:30;101184.06;;;8.27;66.08
61554;BME280;47425;51.976;5.326;2023-04-02T01:45:02;101186.69;;;8.23;65.92
61554;BME280;47425;51.976;5.326;2023-04-02T01:47:29;101197.94;;;8.27;66.11
61554;BME280;47425;51.976;5.326;2023-04-02T01:49:57;101197.06;;;8.33;66.28
61554;BME280;47425;51.976;5.326;2023-04-02T01:52:33;101207.47;;;8.37;66.46
61554;BME280;47425;51.976;5.326;2023-04-02T01:55:02;101209.34;;;8.14;66.14
61554;BME280;47425;51.976;5.326;2023-04-02T01:57:29;101221.50;;;8.19;67.11
61554;BME280;47425;51.976;5.326;2023-04-02T01:59:57;101232.81;;;8.12;66.68
61554;BME280;47425;51.976;5.326;2023-04-02T02:02:27;101225.03;;;7.98;66.84
61554;BME280;47425;51.976;5.326;2023-04-02T02:04:53;101239.78;;;8.05;66.59
61554;BME280;47425;51.976;5.326;2023-04-02T02:07:20;101233.75;;;7.93;66.67
61554;BME280;47425;51.976;5.326;2023-04-02T02:09:51;101245.06;;;7.85;65.93
61554;BME280;47425;51.976;5.326;2023-04-02T02:12:19;101235.50;;;7.87;67.09
61554;BME280;47425;51.976;5.326;2023-04-02T02:14:46;101239.81;;;8.01;67.68
61554;BME280;47425;51.976;5.326;2023-04-02T02:17:14;101244.97;;;8.15;66.40
61554;BME280;47425;51.976;5.326;2023-04-02T02:19:44;101253.69;;;8.14;66.56
61554;BME280;47425;51.976;5.326;2023-04-02T02:22:16;101264.09;;;8.12;65.70
61554;BME280;47425;51.976;5.326;2023-04-02T02:24:45;101261.53;;;8.06;65.72
61554;BME280;47425;51.976;5.326;2023-04-02T02:27:20;101271.16;;;7.81;65.50
61554;BME280;47425;51.976;5.326;2023-04-02T02:30:16;101281.59;;;7.71;66.14
61554;BME280;47425;51.976;5.326;2023-04-02T02:32:47;101283.34;;;7.59;65.57
61554;BME280;47425;51.976;5.326;2023-04-02T02:35:17;101273.78;;;7.71;66.31
61554;BME280;47425;51.976;5.326;2023-04-02T02:37:50;101285.97;;;7.54;65.84
61554;BME280;47425;51.976;5.326;2023-04-02T02:40:20;101294.66;;;7.39;66.75
61554;BME280;47425;51.976;5.326;2023-04-02T02:42:49;101297.25;;;7.61;66.87
61554;BME280;47425;51.976;5.326;2023-04-02T02:45:19;101294.66;;;7.62;65.78
61554;BME280;47425;51.976;5.326;2023-04-02T02:47:48;101298.13;;;7.61;66.37
61554;BME280;47425;51.976;5.326;2023-04-02T02:50:17;101304.19;;;7.57;65.49
61554;BME280;47425;51.976;5.326;2023-04-02T02:52:45;101321.59;;;7.44;65.56
61554;BME280;47425;51.976;5.326;2023-04-02T02:55:14;101318.13;;;7.48;66.40
61554;BME280;47425;51.976;5.326;2023-04-02T02:57:53;101333.78;;;7.56;65.53
61554;BME280;47425;51.976;5.326;2023-04-02T03:00:23;101327.69;;;7.51;65.78
61554;BME280;47425;51.976;5.326;2023-04-02T03:02:51;101332.03;;;7.46;65.48
61554;BME280;47425;51.976;5.326;2023-04-02T03:05:25;101339.84;;;7.55;66.26
61554;BME280;47425;51.976;5.326;2023-04-02T03:07:57;101332.03;;;7.64;65.96
61554;BME280;47425;51.976;5.326;2023-04-02T03:10:31;101343.31;;;7.51;65.21
61554;BME280;47425;51.976;5.326;2023-04-02T03:13:01;101349.38;;;7.42;66.13
61554;BME280;47425;51.976;5.326;2023-04-02T03:15:34;101360.69;;;7.60;67.21
61554;BME280;47425;51.976;5.326;2023-04-02T03:18:01;101366.78;;;7.62;66.85
61554;BME280;47425;51.976;5.326;2023-04-02T03:20:34;101373.72;;;7.67;66.85
61554;BME280;47425;51.976;5.326;2023-04-02T03:23:05;101371.94;;;7.38;66.00
61554;BME280;47425;51.976;5.326;2023-04-02T03:25:36;101376.28;;;7.30;66.39
61554;BME280;47425;51.976;5.326;2023-04-02T03:28:05;101384.09;;;7.29;67.28
61554;BME280;47425;51.976;5.326;2023-04-02T03:30:36;101394.53;;;7.39;67.91
61554;BME280;47425;51.976;5.326;2023-04-02T03:33:05;101396.28;;;7.45;66.14
61554;BME280;47425;51.976;5.326;2023-04-02T03:35:39;101411.06;;;7.42;66.83
61554;BME280;47425;51.976;5.326;2023-04-02T03:38:10;101421.44;;;7.23;66.08
61554;BME280;47425;51.976;5.326;2023-04-02T03:40:42;101416.19;;;7.14;66.22
61554;BME280;47425;51.976;5.326;2023-04-02T03:43:13;101420.50;;;7.05;66.34
61554;BME280;47425;51.976;5.326;2023-04-02T03:46:08;101434.44;;;7.11;66.56
61554;BME280;47425;51.976;5.326;2023-04-02T03:48:39;101437.06;;;7.21;67.69
61554;BME280;47425;51.976;5.326;2023-04-02T03:51:11;101435.34;;;7.30;65.87
61554;BME280;47425;51.976;5.326;2023-04-02T03:53:41;101439.69;;;7.23;66.63
61554;BME280;47425;51.976;5.326;2023-04-02T03:56:18;101449.25;;;7.41;67.01
61554;BME280;47425;51.976;5.326;2023-04-02T03:58:48;101448.41;;;7.41;65.78
61554;BME280;47425;51.976;5.326;2023-04-02T04:01:22;101457.94;;;7.35;66.20
61554;BME280;47425;51.976;5.326;2023-04-02T04:03:53;101463.97;;;7.25;65.41
61554;BME280;47425;51.976;5.326;2023-04-02T04:06:24;101462.22;;;7.13;65.46
61554;BME280;47425;51.976;5.326;2023-04-02T04:08:53;101470.03;;;7.21;65.73
61554;BME280;47425;51.976;5.326;2023-04-02T04:11:21;101476.16;;;7.23;66.02
61554;BME280;47425;51.976;5.326;2023-04-02T04:13:53;101479.59;;;7.22;65.45
61554;BME280;47425;51.976;5.326;2023-04-02T04:16:23;101482.22;;;7.20;65.88
61554;BME280;47425;51.976;5.326;2023-04-02T04:18:54;101490.03;;;7.23;65.64
61554;BME280;47425;51.976;5.326;2023-04-02T04:21:32;101509.91;;;7.01;65.25
61554;BME280;47425;51.976;5.326;2023-04-02T04:24:13;101508.97;;;6.84;65.22
61554;BME280;47425;51.976;5.326;2023-04-02T04:26:43;101512.34;;;6.70;65.93
61554;BME280;47425;51.976;5.326;2023-04-02T04:29:17;101515.00;;;6.80;66.16
61554;BME280;47425;51.976;5.326;2023-04-02T04:31:53;101517.63;;;6.86;65.29
61554;BME280;47425;51.976;5.326;2023-04-02T04:34:25;101526.28;;;6.82;65.14
61554;BME280;47425;51.976;5.326;2023-04-02T04:36:58;101535.00;;;6.85;64.93
61554;BME280;47425;51.976;5.326;2023-04-02T04:39:35;101545.34;;;6.73;64.36
61554;BME280;47425;51.976;5.326;2023-04-02T04:42:06;101544.41;;;6.66;64.69
61554;BME280;47425;51.976;5.326;2023-04-02T04:44:40;101548.78;;;6.70;64.10
61554;BME280;47425;51.976;5.326;2023-04-02T04:47:14;101548.72;;;6.61;64.43
61554;BME280;47425;51.976;5.326;2023-04-02T04:49:46;101555.59;;;6.54;63.57
61554;BME280;47425;51.976;5.326;2023-04-02T04:52:18;101557.28;;;6.48;64.05
61554;BME280;47425;51.976;5.326;2023-04-02T04:54:47;101563.34;;;6.47;65.21
61554;BME280;47425;51.976;5.326;2023-04-02T04:57:21;101566.94;;;6.64;65.36
61554;BME280;47425;51.976;5.326;2023-04-02T04:59:54;101569.59;;;6.70;64.27
61554;BME280;47425;51.976;5.326;2023-04-02T05:02:25;101572.22;;;6.70;65.21
61554;BME280;47425;51.976;5.326;2023-04-02T05:04:53;101576.53;;;6.68;63.91
61554;BME280;47425;51.976;5.326;2023-04-02T05:07:24;101594.72;;;6.67;63.98
61554;BME280;47425;51.976;5.326;2023-04-02T05:09:54;101598.13;;;6.57;64.05
61554;BME280;47425;51.976;5.326;2023-04-02T05:12:25;101601.53;;;6.48;63.81
61554;BME280;47425;51.976;5.326;2023-04-02T05:14:56;101610.25;;;6.56;63.94
61554;BME280;47425;51.976;5.326;2023-04-02T05:17:25;101612.78;;;6.47;63.94
61554;BME280;47425;51.976;5.326;2023-04-02T05:19:54;101625.88;;;6.53;63.90
61554;BME280;47425;51.976;5.326;2023-04-02T05:22:24;101619.63;;;6.35;63.06
61554;BME280;47425;51.976;5.326;2023-04-02T05:25:00;101625.56;;;6.20;64.04
61554;BME280;47425;51.976;5.326;2023-04-02T05:27:36;101630.06;;;6.40;63.85
61554;BME280;47425;51.976;5.326;2023-04-02T05:30:09;101641.22;;;6.30;63.37
61554;BME280;47425;51.976;5.326;2023-04-02T05:32:39;101647.25;;;6.22;62.03
61554;BME280;47425;51.976;5.326;2023-04-02T05:35:12;101655.94;;;6.23;63.03
61554;BME280;47425;51.976;5.326;2023-04-02T05:37:41;101664.47;;;6.13;61.75
61554;BME280;47425;51.976;5.326;2023-04-02T05:40:10;101660.97;;;6.12;61.76
61554;BME280;47425;51.976;5.326;2023-04-02T05:42:42;101666.81;;;5.93;60.42
61554;BME280;47425;51.976;5.326;2023-04-02T05:45:18;101671.94;;;5.88;62.45
61554;BME280;47425;51.976;5.326;2023-04-02T05:47:47;101686.56;;;5.78;61.53
61554;BME280;47425;51.976;5.326;2023-04-02T05:50:21;101683.94;;;5.77;61.04
61554;BME280;47425;51.976;5.326;2023-04-02T05:52:52;101688.22;;;5.73;61.07
61554;BME280;47425;51.976;5.326;2023-04-02T05:55:26;101701.19;;;5.71;61.25
61554;BME280;47425;51.976;5.326;2023-04-02T05:57:57;101702.16;;;5.80;62.18
61554;BME280;47425;51.976;5.326;2023-04-02T06:00:38;101717.03;;;5.90;62.57
61554;BME280;47425;51.976;5.326;2023-04-02T06:03:15;101716.06;;;5.82;61.98
61554;BME280;47425;51.976;5.326;2023-04-02T06:05:51;101726.19;;;5.62;61.42
61554;BME280;47425;51.976;5.326;2023-04-02T06:08:20;101726.09;;;5.57;61.40
61554;BME280;47425;51.976;5.326;2023-04-02T06:10:49;101735.66;;;5.58;62.63
61554;BME280;47425;51.976;5.326;2023-04-02T06:13:21;101742.50;;;5.53;62.61
61554;BME280;47425;51.976;5.326;2023-04-02T06:15:48;101755.69;;;5.65;62.30
61554;BME280;47425;51.976;5.326;2023-04-02T06:18:22;101756.72;;;5.78;62.04
61554;BME280;47425;51.976;5.326;2023-04-02T06:20:51;101769.72;;;5.78;61.83
61554;BME280;47425;51.976;5.326;2023-04-02T06:23:35;101772.16;;;5.66;61.48
61554;BME280;47425;51.976;5.326;2023-04-02T06:26:06;101766.00;;;5.59;61.20
61554;BME280;47425;51.976;5.326;2023-04-02T06:28:37;101774.56;;;5.53;61.80
61554;BME280;47425;51.976;5.326;2023-04-02T06:31:07;101780.63;;;5.52;61.36
61554;BME280;47425;51.976;5.326;2023-04-02T06:33:35;101783.09;;;5.46;62.28
61554;BME280;47425;51.976;5.326;2023-04-02T06:36:03;101803.03;;;5.47;62.01
61554;BME280;47425;51.976;5.326;2023-04-02T06:38:32;101796.13;;;5.48;61.87
61554;BME280;47425;51.976;5.326;2023-04-02T06:41:03;101800.41;;;5.44;61.66
61554;BME280;47425;51.976;5.326;2023-04-02T06:43:40;101807.56;;;5.59;63.09
61554;BME280;47425;51.976;5.326;2023-04-02T06:46:30;101816.22;;;5.58;62.13
61554;BME280;47425;51.976;5.326;2023-04-02T06:49:20;101814.84;;;5.28;60.46
61554;BME280;47425;51.976;5.326;2023-04-02T06:51:55;101819.81;;;5.14;61.21
61554;BME280;47425;51.976;5.326;2023-04-02T06:54:25;101835.31;;;5.11;61.22
61554;BME280;47425;51.976;5.326;2023-04-02T06:56:58;101835.44;;;5.16;61.93
61554;BME280;47425;51.976;5.326;2023-04-02T06:59:36;101845.81;;;5.16;61.10
61554;BME280;47425;51.976;5.326;2023-04-02T07:02:14;101844.75;;;5.06;62.06
61554;BME280;47425;51.976;5.326;2023-04-02T07:04:44;101847.78;;;5.29;63.32
61554;BME280;47425;51.976;5.326;2023-04-02T07:07:12;101848.34;;;5.63;62.20
61554;BME280;47425;51.976;5.326;2023-04-02T07:09:41;101865.94;;;5.81;61.08
61554;BME280;47425;51.976;5.326;2023-04-02T07:12:11;101874.31;;;5.62;60.15
61554;BME280;47425;51.976;5.326;2023-04-02T07:14:38;101875.75;;;5.44;59.98
61554;BME280;47425;51.976;5.326;2023-04-02T07:17:08;101882.16;;;5.14;60.21
61554;BME280;47425;51.976;5.326;2023-04-02T07:19:40;101888.84;;;5.03;60.88
61554;BME280;47425;51.976;5.326;2023-04-02T07:22:08;101901.94;;;5.09;61.04
61554;BME280;47425;51.976;5.326;2023-04-02T07:24:38;101903.63;;;5.07;60.84
61554;BME280;47425;51.976;5.326;2023-04-02T07:27:05;101899.16;;;5.00;62.19
61554;BME280;47425;51.976;5.326;2023-04-02T07:29:34;101902.19;;;5.21;61.16
61554;BME280;47425;51.976;5.326;2023-04-02T07:32:08;101900.38;;;5.17;60.99
61554;BME280;47425;51.976;5.326;2023-04-02T07:34:34;101911.66;;;5.19;61.23
61554;BME280;47425;51.976;5.326;2023-04-02T07:37:01;101916.44;;;4.99;60.64
61554;BME280;47425;51.976;5.326;2023-04-02T07:39:29;101921.00;;;5.11;60.92
61554;BME280;47425;51.976;5.326;2023-04-02T07:41:56;101925.44;;;5.17;61.34
61554;BME280;47425;51.976;5.326;2023-04-02T07:44:23;101926.38;;;5.20;61.98
61554;BME280;47425;51.976;5.326;2023-04-02T07:46:50;101940.38;;;5.27;60.89
61554;BME280;47425;51.976;5.326;2023-04-02T07:49:18;101942.72;;;5.13;61.59
61554;BME280;47425;51.976;5.326;2023-04-02T07:51:45;101946.19;;;5.15;61.86
61554;BME280;47425;51.976;5.326;2023-04-02T07:54:12;101948.78;;;5.15;61.35
61554;BME280;47425;51.976;5.326;2023-04-02T07:56:39;101952.91;;;5.04;61.72
61554;BME280;47425;51.976;5.326;2023-04-02T07:59:06;101964.41;;;5.17;64.03
61554;BME280;47425;51.976;5.326;2023-04-02T08:01:32;101951.47;;;5.18;61.72
61554;BME280;47425;51.976;5.326;2023-04-02T08:04:02;101955.53;;;5.06;61.77
61554;BME280;47425;51.976;5.326;2023-04-02T08:06:30;101962.66;;;5.16;62.11
61554;BME280;47425;51.976;5.326;2023-04-02T08:08:57;101962.69;;;5.17;61.76
61554;BME280;47425;51.976;5.326;2023-04-02T08:11:23;101970.38;;;5.13;61.42
61554;BME280;47425;51.976;5.326;2023-04-02T08:13:51;101972.16;;;5.15;62.63
61554;BME280;47425;51.976;5.326;2023-04-02T08:16:17;101974.13;;;5.27;63.25
61554;BME280;47425;51.976;5.326;2023-04-02T08:18:44;101984.63;;;5.32;62.26
61554;BME280;47425;51.976;5.326;2023-04-02T08:21:13;101989.72;;;5.27;62.99
61554;BME280;47425;51.976;5.326;2023-04-02T08:23:59;101997.25;;;5.58;62.50
61554;BME280;47425;51.976;5.326;2023-04-02T08:26:26;102005.53;;;5.85;62.43
61554;BME280;47425;51.976;5.326;2023-04-02T08:28:52;102009.78;;;5.80;60.34
61554;BME280;47425;51.976;5.326;2023-04-02T08:31:18;102023.81;;;5.43;61.08
61554;BME280;47425;51.976;5.326;2023-04-02T08:33:46;102020.16;;;5.34;61.43
61554;BME280;47425;51.976;5.326;2023-04-02T08:36:15;102028.19;;;5.45;60.77
61554;BME280;47425;51.976;5.326;2023-04-02T08:38:42;102030.03;;;5.51;60.56
61554;BME280;47425;51.976;5.326;2023-04-02T08:41:09;102027.66;;;5.20;60.41
61554;BME280;47425;51.976;5.326;2023-04-02T08:43:48;102022.59;;;5.25;61.32
61554;BME280;47425;51.976;5.326;2023-04-02T08:46:21;102035.72;;;5.34;60.53
61554;BME280;47425;51.976;5.326;2023-04-02T08:48:50;102034.81;;;5.31;60.92
61554;BME280;47425;51.976;5.326;2023-04-02T08:51:22;102041.22;;;5.48;61.41
61554;BME280;47425;51.976;5.326;2023-04-02T08:53:49;102051.78;;;5.56;60.46
61554;BME280;47425;51.976;5.326;2023-04-02T08:56:18;102057.16;;;5.65;61.23
61554;BME280;47425;51.976;5.326;2023-04-02T08:58:47;102049.59;;;5.78;59.92
61554;BME280;47425;51.976;5.326;2023-04-02T09:01:17;102058.72;;;5.57;60.50
61554;BME280;47425;51.976;5.326;2023-04-02T09:03:46;102062.41;;;5.68;60.34
61554;BME280;47425;51.976;5.326;2023-04-02T09:06:17;102072.69;;;6.07;60.12
61554;BME280;47425;51.976;5.326;2023-04-02T09:08:46;102072.47;;;5.97;60.38
61554;BME280;47425;51.976;5.326;2023-04-02T09:11:18;102082.31;;;6.12;59.48
61554;BME280;47425;51.976;5.326;2023-04-02T09:13:50;102081.78;;;6.30;60.37
61554;BME280;47425;51.976;5.326;2023-04-02T09:16:18;102087.72;;;6.23;58.32
61554;BME280;47425;51.976;5.326;2023-04-02T09:18:46;102101.78;;;5.88;59.22
61554;BME280;47425;51.976;5.326;2023-04-02T09:21:17;102103.50;;;5.88;59.66
61554;BME280;47425;51.976;5.326;2023-04-02T09:24:13;102120.47;;;6.12;59.28
61554;BME280;47425;51.976;5.326;2023-04-02T09:26:40;102125.00;;;5.79;57.62
61554;BME280;47425;51.976;5.326;2023-04-02T09:29:23;102129.22;;;5.72;59.35
61554;BME280;47425;51.976;5.326;2023-04-02T09:31:54;102140.19;;;5.59;59.51
61554;BME280;47425;51.976;5.326;2023-04-02T09:34:27;102141.91;;;6.00;62.33
61554;BME280;47425;51.976;5.326;2023-04-02T09:36:56;102142.56;;;6.35;59.54
61554;BME280;47425;51.976;5.326;2023-04-02T09:39:24;102152.59;;;6.14;57.79
61554;BME280;47425;51.976;5.326;2023-04-02T09:41:52;102158.09;;;6.31;58.89
61554;BME280;47425;51.976;5.326;2023-04-02T09:44:20;102148.81;;;6.45;58.49
61554;BME280;47425;51.976;5.326;2023-04-02T09:46:51;102155.75;;;5.99;57.01
61554;BME280;47425;51.976;5.326;2023-04-02T09:49:20;102161.88;;;6.02;58.38
61554;BME280;47425;51.976;5.326;2023-04-02T09:52:03;102165.31;;;6.00;57.06
61554;BME280;47425;51.976;5.326;2023-04-02T09:54:32;102171.25;;;5.96;57.79
61554;BME280;47425;51.976;5.326;2023-04-02T09:57:05;102175.72;;;6.01;58.40
61554;BME280;47425;51.976;5.326;2023-04-02T09:59:42;102182.13;;;6.17;58.45
61554;BME280;47425;51.976;5.326;2023-04-02T10:02:21;102185.28;;;6.47;58.14
61554;BME280;47425;51.976;5.326;2023-04-02T10:05:02;102186.97;;;6.45;57.46
61554;BME280;47425;51.976;5.326;2023-04-02T10:07:30;102187.47;;;6.25;56.82
61554;BME280;47425;51.976;5.326;2023-04-02T10:10:01;102197.91;;;6.27;59.42
61554;BME280;47425;51.976;5.326;2023-04-02T10:12:28;102193.19;;;6.51;57.38
61554;BME280;47425;51.976;5.326;2023-04-02T10:14:55;102189.69;;;6.52;57.27
61554;BME280;47425;51.976;5.326;2023-04-02T10:17:26;102207.06;;;6.52;57.22
61554;BME280;47425;51.976;5.326;2023-04-02T10:19:53;102203.22;;;6.80;57.92
61554;BME280;47425;51.976;5.326;2023-04-02T10:22:21;102196.03;;;7.20;55.96
61554;BME280;47425;51.976;5.326;2023-04-02T10:24:49;102194.78;;;6.95;55.05
61554;BME280;47425;51.976;5.326;2023-04-02T10:27:20;102206.44;;;6.67;55.58
61554;BME280;47425;51.976;5.326;2023-04-02T10:30:00;102205.59;;;6.68;56.15
61554;BME280;47425;51.976;5.326;2023-04-02T10:32:33;102207.47;;;6.75;55.07
61554;BME280;47425;51.976;5.326;2023-04-02T10:35:06;102215.38;;;6.81;54.10
61554;BME280;47425;51.976;5.326;2023-04-02T10:37:52;102213.75;;;6.86;54.68
61554;BME280;47425;51.976;5.326;2023-04-02T10:40:24;102217.69;;;7.15;55.55
61554;BME280;47425;51.976;5.326;2023-04-02T10:42:57;102215.44;;;7.39;55.06
61554;BME280;47425;51.976;5.326;2023-04-02T10:45:31;102217.69;;;7.76;54.39
61554;BME280;47425;51.976;5.326;2023-04-02T10:48:03;102210.88;;;7.87;52.77
61554;BME280;47425;51.976;5.326;2023-04-02T10:50:35;102211.69;;;7.82;52.74
61554;BME280;47425;51.976;5.326;2023-04-02T10:53:08;102215.97;;;7.77;51.51
61554;BME280;47425;51.976;5.326;2023-04-02T10:55:39;102215.19;;;7.84;52.92
61554;BME280;47425;51.976;5.326;2023-04-02T10:58:12;102220.63;;;8.01;52.06
61554;BME280;47425;51.976;5.326;2023-04-02T11:00:43;102218.00;;;7.99;50.25
61554;BME280;47425;51.976;5.326;2023-04-02T11:03:12;102225.88;;;8.05;51.57
61554;BME280;47425;51.976;5.326;2023-04-02T11:05:40;102229.41;;;8.09;51.68
61554;BME280;47425;51.976;5.326;2023-04-02T11:08:12;102231.16;;;8.07;50.19
61554;BME280;47425;51.976;5.326;2023-04-02T11:10:43;102223.22;;;7.99;50.57
61554;BME280;47425;51.976;5.326;2023-04-02T11:13:13;102233.06;;;8.22;52.28
61554;BME280;47425;51.976;5.326;2023-04-02T11:15:44;102241.31;;;8.61;51.21
61554;BME280;47425;51.976;5.326;2023-04-02T11:18:21;102244.91;;;8.69;49.38
61554;BME280;47425;51.976;5.326;2023-04-02T11:20:57;102250.63;;;8.37;49.43
61554;BME280;47425;51.976;5.326;2023-04-02T11:23:27;102241.28;;;8.56;49.39
61554;BME280;47425;51.976;5.326;2023-04-02T11:28:40;102241.25;;;8.51;48.59
61554;BME280;47425;51.976;5.326;2023-04-02T11:31:07;102243.81;;;8.50;48.25
61554;BME280;47425;51.976;5.326;2023-04-02T11:33:37;102250.69;;;8.43;47.06
61554;BME280;47425;51.976;5.326;2023-04-02T11:38:47;102271.66;;;8.46;47.75
61554;BME280;47425;51.976;5.326;2023-04-02T11:44:00;102268.31;;;8.60;47.04
61554;BME280;47425;51.976;5.326;2023-04-02T11:46:31;102267.44;;;8.61;48.37
61554;BME280;47425;51.976;5.326;2023-04-02T11:51:48;102275.00;;;9.20;47.80
61554;BME280;47425;51.976;5.326;2023-04-02T11:54:20;102279.09;;;8.90;46.97
61554;BME280;47425;51.976;5.326;2023-04-02T11:56:51;102272.03;;;8.85;46.87
61554;BME280;47425;51.976;5.326;2023-04-02T11:59:24;102278.34;;;9.05;46.87
61554;BME280;47425;51.976;5.326;2023-04-02T12:01:58;102281.94;;;9.18;46.73
61554;BME280;47425;51.976;5.326;2023-04-02T12:10:01;102288.44;;;9.73;46.54
61554;BME280;47425;51.976;5.326;2023-04-02T12:12:31;102296.28;;;9.70;45.46
61554;BME280;47425;51.976;5.326;2023-04-02T12:15:01;102303.22;;;9.65;45.64
61554;BME280;47425;51.976;5.326;2023-04-02T12:17:28;102302.22;;;9.49;45.40
61554;BME280;47425;51.976;5.326;2023-04-02T12:19:56;102298.66;;;9.37;45.54
61554;BME280;47425;51.976;5.326;2023-04-02T12:22:24;102293.47;;;9.42;46.04
61554;BME280;47425;51.976;5.326;2023-04-02T12:24:54;102294.38;;;9.52;46.16
61554;BME280;47425;51.976;5.326;2023-04-02T12:27:23;102296.34;;;9.79;45.78
61554;BME280;47425;51.976;5.326;2023-04-02T12:29:52;102303.13;;;9.51;45.48
61554;BME280;47425;51.976;5.326;2023-04-02T12:32:23;102308.38;;;9.58;45.11
61554;BME280;47425;51.976;5.326;2023-04-02T12:34:51;102311.25;;;9.91;46.02
61554;BME280;47425;51.976;5.326;2023-04-02T12:37:19;102308.81;;;10.27;46.77
61554;BME280;47425;51.976;5.326;2023-04-02T12:39:50;102308.81;;;10.28;44.73
61554;BME280;47425;51.976;5.326;2023-04-02T12:42:25;102302.56;;;10.00;42.75
61554;BME280;47425;51.976;5.326;2023-04-02T12:44:53;102300.03;;;10.20;44.02
61554;BME280;47425;51.976;5.326;2023-04-02T12:47:21;102314.22;;;10.70;45.45
61554;BME280;47425;51.976;5.326;2023-04-02T12:49:47;102306.41;;;10.84;42.08
61554;BME280;47425;51.976;5.326;2023-04-02T12:52:17;102311.56;;;10.61;42.68
61554;BME280;47425;51.976;5.326;2023-04-02T12:54:44;102319.47;;;10.70;44.19
61554;BME280;47425;51.976;5.326;2023-04-02T12:57:30;102326.44;;;10.60;43.45
61554;BME280;47425;51.976;5.326;2023-04-02T12:59:58;102321.19;;;10.63;42.58
61554;BME280;47425;51.976;5.326;2023-04-02T13:02:28;102323.84;;;10.71;44.49
61554;BME280;47425;51.976;5.326;2023-04-02T13:04:56;102326.47;;;10.85;42.75
61554;BME280;47425;51.976;5.326;2023-04-02T13:07:25;102328.19;;;10.64;42.35
61554;BME280;47425;51.976;5.326;2023-04-02T13:09:54;102324.69;;;10.70;42.96
61554;BME280;47425;51.976;5.326;2023-04-02T13:12:24;102328.22;;;10.72;42.10
61554;BME280;47425;51.976;5.326;2023-04-02T13:14:52;102315.94;;;10.60;41.58
61554;BME280;47425;51.976;5.326;2023-04-02T13:17:37;102329.03;;;10.60;42.74
61554;BME280;47425;51.976;5.326;2023-04-02T13:22:51;102326.47;;;10.66;43.11
61554;BME280;47425;51.976;5.326;2023-04-02T13:25:18;102328.97;;;10.37;42.21
61554;BME280;47425;51.976;5.326;2023-04-02T13:27:45;102328.16;;;10.49;41.86
61554;BME280;47425;51.976;5.326;2023-04-02T13:30:14;102330.59;;;10.27;41.78
61554;BME280;47425;51.976;5.326;2023-04-02T13:32:48;102328.84;;;10.23;41.96
61554;BME280;47425;51.976;5.326;2023-04-02T13:35:15;102323.66;;;10.32;41.72
61554;BME280;47425;51.976;5.326;2023-04-02T13:37:41;102329.88;;;10.44;43.37
61554;BME280;47425;51.976;5.326;2023-04-02T13:40:11;102330.72;;;10.47;40.88
61554;BME280;47425;51.976;5.326;2023-04-02T13:42:38;102343.00;;;10.54;45.18